sensor_id;sensor_type;location;lat;lon;timestamp;temperature;humidity
72320;SHT30;60269;52.502;16.732;2023-04-19T00:01:22;7.16;66.74
72320;SHT30;60269;52.502;16.732;2023-04-19T00:04:55;7.05;67.14
72320;SHT30;60269;52.502;16.732;2023-04-19T00:08:27;6.93;68.83
72320;SHT30;60269;52.502;16.732;2023-04-19T00:11:59;6.81;68.40
72320;SHT30;60269;52.502;16.732;2023-04-19T00:15:31;6.67;67.93
72320;SHT30;60269;52.502;16.732;2023-04-19T00:19:05;6.50;66.95
72320;SHT30;60269;52.502;16.732;2023-04-19T00:22:38;6.30;66.61
72320;SHT30;60269;52.502;16.732;2023-04-19T00:26:13;6.11;66.71
72320;SHT30;60269;52.502;16.732;2023-04-19T00:29:46;5.91;67.50
72320;SHT30;60269;52.502;16.732;2023-04-19T00:33:18;5.68;67.39
72320;SHT30;60269;52.502;16.732;2023-04-19T00:36:50;5.60;67.64
72320;SHT30;60269;52.502;16.732;2023-04-19T00:40:22;5.48;68.80
72320;SHT30;60269;52.502;16.732;2023-04-19T00:43:54;5.30;70.38
72320;SHT30;60269;52.502;16.732;2023-04-19T00:47:26;5.08;72.18
72320;SHT30;60269;52.502;16.732;2023-04-19T00:50:58;4.93;72.05
72320;SHT30;60269;52.502;16.732;2023-04-19T00:54:31;4.84;72.88
72320;SHT30;60269;52.502;16.732;2023-04-19T00:58:07;4.62;73.09
72320;SHT30;60269;52.502;16.732;2023-04-19T01:01:40;4.47;73.26
72320;SHT30;60269;52.502;16.732;2023-04-19T01:05:12;4.36;73.01
72320;SHT30;60269;52.502;16.732;2023-04-19T01:08:45;4.27;73.10
72320;SHT30;60269;52.502;16.732;2023-04-19T01:12:17;4.11;73.71
72320;SHT30;60269;52.502;16.732;2023-04-19T01:15:50;3.99;74.63
72320;SHT30;60269;52.502;16.732;2023-04-19T01:19:22;3.77;75.73
72320;SHT30;60269;52.502;16.732;2023-04-19T01:22:54;3.68;75.90
72320;SHT30;60269;52.502;16.732;2023-04-19T01:26:26;3.60;75.94
72320;SHT30;60269;52.502;16.732;2023-04-19T01:29:58;3.42;77.00
72320;SHT30;60269;52.502;16.732;2023-04-19T01:33:31;3.31;77.70
72320;SHT30;60269;52.502;16.732;2023-04-19T01:37:03;3.24;78.29
72320;SHT30;60269;52.502;16.732;2023-04-19T01:40:35;3.24;78.22
72320;SHT30;60269;52.502;16.732;2023-04-19T01:44:07;3.19;78.37
72320;SHT30;60269;52.502;16.732;2023-04-19T01:47:39;3.09;78.72
72320;SHT30;60269;52.502;16.732;2023-04-19T01:51:11;3.00;79.31
72320;SHT30;60269;52.502;16.732;2023-04-19T01:54:43;2.85;80.17
72320;SHT30;60269;52.502;16.732;2023-04-19T01:58:15;2.66;81.02
72320;SHT30;60269;52.502;16.732;2023-04-19T02:01:47;2.52;81.53
72320;SHT30;60269;52.502;16.732;2023-04-19T02:05:19;2.41;81.97
72320;SHT30;60269;52.502;16.732;2023-04-19T02:08:52;2.33;82.18
72320;SHT30;60269;52.502;16.732;2023-04-19T02:12:25;2.28;82.46
72320;SHT30;60269;52.502;16.732;2023-04-19T02:15:59;2.20;82.62
72320;SHT30;60269;52.502;16.732;2023-04-19T02:19:34;2.14;82.90
72320;SHT30;60269;52.502;16.732;2023-04-19T02:23:07;2.02;83.50
72320;SHT30;60269;52.502;16.732;2023-04-19T02:26:39;1.99;83.91
72320;SHT30;60269;52.502;16.732;2023-04-19T02:30:11;1.93;84.20
72320;SHT30;60269;52.502;16.732;2023-04-19T02:33:44;1.87;84.57
72320;SHT30;60269;52.502;16.732;2023-04-19T02:37:17;1.79;85.07
72320;SHT30;60269;52.502;16.732;2023-04-19T02:40:49;1.79;85.31
72320;SHT30;60269;52.502;16.732;2023-04-19T02:44:21;1.66;85.75
72320;SHT30;60269;52.502;16.732;2023-04-19T02:47:53;1.59;86.42
72320;SHT30;60269;52.502;16.732;2023-04-19T02:51:25;1.45;86.78
72320;SHT30;60269;52.502;16.732;2023-04-19T02:54:57;1.21;87.64
72320;SHT30;60269;52.502;16.732;2023-04-19T02:58:29;1.08;88.15
72320;SHT30;60269;52.502;16.732;2023-04-19T03:02:01;0.97;89.01
72320;SHT30;60269;52.502;16.732;2023-04-19T03:05:34;0.88;89.24
72320;SHT30;60269;52.502;16.732;2023-04-19T03:09:06;0.90;89.26
72320;SHT30;60269;52.502;16.732;2023-04-19T03:12:38;0.91;89.02
72320;SHT30;60269;52.502;16.732;2023-04-19T03:16:10;0.79;89.39
72320;SHT30;60269;52.502;16.732;2023-04-19T03:19:42;0.76;89.74
72320;SHT30;60269;52.502;16.732;2023-04-19T03:23:15;0.73;89.95
72320;SHT30;60269;52.502;16.732;2023-04-19T03:26:47;0.75;90.14
72320;SHT30;60269;52.502;16.732;2023-04-19T03:30:19;0.70;90.89
72320;SHT30;60269;52.502;16.732;2023-04-19T03:33:51;0.75;90.68
72320;SHT30;60269;52.502;16.732;2023-04-19T03:37:22;0.72;90.92
72320;SHT30;60269;52.502;16.732;2023-04-19T03:40:54;0.69;91.17
72320;SHT30;60269;52.502;16.732;2023-04-19T03:44:31;0.72;91.00
72320;SHT30;60269;52.502;16.732;2023-04-19T03:48:03;0.76;91.49
72320;SHT30;60269;52.502;16.732;2023-04-19T03:51:35;1.09;90.86
72320;SHT30;60269;52.502;16.732;2023-04-19T03:55:08;1.23;90.37
72320;SHT30;60269;52.502;16.732;2023-04-19T03:58:40;1.44;90.04
72320;SHT30;60269;52.502;16.732;2023-04-19T04:02:13;1.70;89.36
72320;SHT30;60269;52.502;16.732;2023-04-19T04:05:45;1.97;88.77
72320;SHT30;60269;52.502;16.732;2023-04-19T04:09:17;2.17;87.87
72320;SHT30;60269;52.502;16.732;2023-04-19T04:12:49;2.28;87.58
72320;SHT30;60269;52.502;16.732;2023-04-19T04:16:21;2.40;87.28
72320;SHT30;60269;52.502;16.732;2023-04-19T04:19:53;2.48;87.16
72320;SHT30;60269;52.502;16.732;2023-04-19T04:23:25;2.56;87.07
72320;SHT30;60269;52.502;16.732;2023-04-19T04:26:57;2.69;87.20
72320;SHT30;60269;52.502;16.732;2023-04-19T04:30:32;2.82;86.61
72320;SHT30;60269;52.502;16.732;2023-04-19T04:34:05;2.95;86.38
72320;SHT30;60269;52.502;16.732;2023-04-19T04:37:40;3.00;86.26
72320;SHT30;60269;52.502;16.732;2023-04-19T04:41:12;3.09;86.07
72320;SHT30;60269;52.502;16.732;2023-04-19T04:44:44;3.24;85.67
72320;SHT30;60269;52.502;16.732;2023-04-19T04:48:18;3.37;85.50
72320;SHT30;60269;52.502;16.732;2023-04-19T04:51:49;3.45;85.37
72320;SHT30;60269;52.502;16.732;2023-04-19T04:55:22;3.50;85.13
72320;SHT30;60269;52.502;16.732;2023-04-19T04:58:54;3.77;84.60
72320;SHT30;60269;52.502;16.732;2023-04-19T05:02:26;4.05;83.60
72320;SHT30;60269;52.502;16.732;2023-04-19T05:05:58;3.98;83.81
72320;SHT30;60269;52.502;16.732;2023-04-19T05:09:30;4.11;83.60
72320;SHT30;60269;52.502;16.732;2023-04-19T05:13:02;4.34;82.96
72320;SHT30;60269;52.502;16.732;2023-04-19T05:16:34;4.60;82.25
72320;SHT30;60269;52.502;16.732;2023-04-19T05:20:07;4.77;81.81
72320;SHT30;60269;52.502;16.732;2023-04-19T05:23:39;4.95;81.15
72320;SHT30;60269;52.502;16.732;2023-04-19T05:27:11;5.16;80.30
72320;SHT30;60269;52.502;16.732;2023-04-19T05:30:43;5.00;80.33
72320;SHT30;60269;52.502;16.732;2023-04-19T05:34:16;4.91;81.23
72320;SHT30;60269;52.502;16.732;2023-04-19T05:37:52;5.08;80.44
72320;SHT30;60269;52.502;16.732;2023-04-19T05:41:24;5.29;79.64
72320;SHT30;60269;52.502;16.732;2023-04-19T05:44:56;5.67;78.30
72320;SHT30;60269;52.502;16.732;2023-04-19T05:48:28;6.01;76.54
72320;SHT30;60269;52.502;16.732;2023-04-19T05:52:00;6.29;75.65
72320;SHT30;60269;52.502;16.732;2023-04-19T05:55:32;6.54;75.17
72320;SHT30;60269;52.502;16.732;2023-04-19T05:59:05;6.79;73.72
72320;SHT30;60269;52.502;16.732;2023-04-19T06:02:37;6.87;73.25
72320;SHT30;60269;52.502;16.732;2023-04-19T06:06:09;6.19;76.09
72320;SHT30;60269;52.502;16.732;2023-04-19T06:09:42;6.14;76.39
72320;SHT30;60269;52.502;16.732;2023-04-19T06:13:14;6.53;75.68
72320;SHT30;60269;52.502;16.732;2023-04-19T06:16:46;6.44;76.16
72320;SHT30;60269;52.502;16.732;2023-04-19T06:20:19;6.29;76.07
72320;SHT30;60269;52.502;16.732;2023-04-19T06:23:51;6.12;76.24
72320;SHT30;60269;52.502;16.732;2023-04-19T06:27:24;5.98;77.24
72320;SHT30;60269;52.502;16.732;2023-04-19T06:30:57;5.75;81.33
72320;SHT30;60269;52.502;16.732;2023-04-19T06:34:29;5.40;85.42
72320;SHT30;60269;52.502;16.732;2023-04-19T06:38:01;4.92;88.61
72320;SHT30;60269;52.502;16.732;2023-04-19T06:41:33;4.82;89.14
72320;SHT30;60269;52.502;16.732;2023-04-19T06:45:06;4.98;89.60
72320;SHT30;60269;52.502;16.732;2023-04-19T06:48:38;5.00;89.35
72320;SHT30;60269;52.502;16.732;2023-04-19T06:52:10;4.69;89.95
72320;SHT30;60269;52.502;16.732;2023-04-19T06:55:43;4.67;91.57
72320;SHT30;60269;52.502;16.732;2023-04-19T06:59:17;4.98;91.34
72320;SHT30;60269;52.502;16.732;2023-04-19T07:02:49;5.39;91.08
72320;SHT30;60269;52.502;16.732;2023-04-19T07:06:23;5.43;91.86
72320;SHT30;60269;52.502;16.732;2023-04-19T07:09:55;5.42;91.09
72320;SHT30;60269;52.502;16.732;2023-04-19T07:13:27;6.09;89.30
72320;SHT30;60269;52.502;16.732;2023-04-19T07:16:59;6.50;87.48
72320;SHT30;60269;52.502;16.732;2023-04-19T07:20:31;6.53;85.88
72320;SHT30;60269;52.502;16.732;2023-04-19T07:24:05;6.53;85.31
72320;SHT30;60269;52.502;16.732;2023-04-19T07:27:37;6.53;84.96
72320;SHT30;60269;52.502;16.732;2023-04-19T07:31:16;6.50;84.97
72320;SHT30;60269;52.502;16.732;2023-04-19T07:34:49;6.72;83.58
72320;SHT30;60269;52.502;16.732;2023-04-19T07:38:23;6.72;83.63
72320;SHT30;60269;52.502;16.732;2023-04-19T07:41:55;6.72;83.16
72320;SHT30;60269;52.502;16.732;2023-04-19T07:45:29;6.77;83.60
72320;SHT30;60269;52.502;16.732;2023-04-19T07:49:01;6.57;83.54
72320;SHT30;60269;52.502;16.732;2023-04-19T07:52:34;6.44;83.44
72320;SHT30;60269;52.502;16.732;2023-04-19T07:56:07;6.36;84.83
72320;SHT30;60269;52.502;16.732;2023-04-19T07:59:39;6.50;84.17
72320;SHT30;60269;52.502;16.732;2023-04-19T08:03:12;6.26;85.36
72320;SHT30;60269;52.502;16.732;2023-04-19T08:06:44;6.04;83.41
72320;SHT30;60269;52.502;16.732;2023-04-19T08:10:17;5.78;86.21
72320;SHT30;60269;52.502;16.732;2023-04-19T08:13:48;5.44;86.56
72320;SHT30;60269;52.502;16.732;2023-04-19T08:17:39;5.27;89.25
72320;SHT30;60269;52.502;16.732;2023-04-19T08:21:13;5.25;89.43
72320;SHT30;60269;52.502;16.732;2023-04-19T08:28:30;5.33;88.76
72320;SHT30;60269;52.502;16.732;2023-04-19T08:32:05;5.13;89.70
72320;SHT30;60269;52.502;16.732;2023-04-19T08:35:40;4.82;90.73
72320;SHT30;60269;52.502;16.732;2023-04-19T08:39:12;4.58;91.29
72320;SHT30;60269;52.502;16.732;2023-04-19T08:43:04;4.33;91.51
72320;SHT30;60269;52.502;16.732;2023-04-19T08:46:38;4.17;92.56
72320;SHT30;60269;52.502;16.732;2023-04-19T08:50:10;3.98;92.83
72320;SHT30;60269;52.502;16.732;2023-04-19T08:53:48;3.83;94.11
72320;SHT30;60269;52.502;16.732;2023-04-19T08:57:21;3.83;94.96
72320;SHT30;60269;52.502;16.732;2023-04-19T09:00:53;3.90;94.66
72320;SHT30;60269;52.502;16.732;2023-04-19T09:04:25;3.90;94.84
72320;SHT30;60269;52.502;16.732;2023-04-19T09:08:27;3.96;94.83
72320;SHT30;60269;52.502;16.732;2023-04-19T09:12:00;3.99;94.72
72320;SHT30;60269;52.502;16.732;2023-04-19T09:15:37;4.14;94.67
72320;SHT30;60269;52.502;16.732;2023-04-19T09:19:10;4.33;94.68
72320;SHT30;60269;52.502;16.732;2023-04-19T09:23:03;4.53;94.10
72320;SHT30;60269;52.502;16.732;2023-04-19T09:26:36;4.65;93.38
72320;SHT30;60269;52.502;16.732;2023-04-19T09:30:09;4.84;94.05
72320;SHT30;60269;52.502;16.732;2023-04-19T09:33:53;4.98;93.54
72320;SHT30;60269;52.502;16.732;2023-04-19T09:37:30;4.98;93.42
72320;SHT30;60269;52.502;16.732;2023-04-19T09:41:22;4.81;93.89
72320;SHT30;60269;52.502;16.732;2023-04-19T09:44:55;4.74;94.01
72320;SHT30;60269;52.502;16.732;2023-04-19T09:48:31;4.72;94.05
72320;SHT30;60269;52.502;16.732;2023-04-19T09:52:04;4.77;94.60
72320;SHT30;60269;52.502;16.732;2023-04-19T09:55:36;4.77;94.11
72320;SHT30;60269;52.502;16.732;2023-04-19T09:59:28;4.72;94.83
72320;SHT30;60269;52.502;16.732;2023-04-19T10:03:01;4.78;94.27
72320;SHT30;60269;52.502;16.732;2023-04-19T10:06:34;4.82;93.90
72320;SHT30;60269;52.502;16.732;2023-04-19T10:10:28;4.92;94.15
72320;SHT30;60269;52.502;16.732;2023-04-19T10:14:14;5.06;93.51
72320;SHT30;60269;52.502;16.732;2023-04-19T10:17:47;5.06;92.65
72320;SHT30;60269;52.502;16.732;2023-04-19T10:21:20;5.02;93.72
72320;SHT30;60269;52.502;16.732;2023-04-19T10:25:10;5.00;93.85
72320;SHT30;60269;52.502;16.732;2023-04-19T10:28:42;4.78;93.45
72320;SHT30;60269;52.502;16.732;2023-04-19T10:32:14;4.58;93.93
72320;SHT30;60269;52.502;16.732;2023-04-19T10:35:46;4.54;94.57
72320;SHT30;60269;52.502;16.732;2023-04-19T10:39:41;4.64;94.27
72320;SHT30;60269;52.502;16.732;2023-04-19T10:43:14;4.85;94.56
72320;SHT30;60269;52.502;16.732;2023-04-19T10:46:46;4.96;94.20
72320;SHT30;60269;52.502;16.732;2023-04-19T10:50:18;5.00;94.25
72320;SHT30;60269;52.502;16.732;2023-04-19T10:54:04;5.33;93.86
72320;SHT30;60269;52.502;16.732;2023-04-19T13:02:00;5.97;92.27
72320;SHT30;60269;52.502;16.732;2023-04-19T13:05:32;6.14;92.23
72320;SHT30;60269;52.502;16.732;2023-04-19T13:09:04;6.19;92.87
72320;SHT30;60269;52.502;16.732;2023-04-19T13:12:45;6.44;92.21
72320;SHT30;60269;52.502;16.732;2023-04-19T13:16:17;6.35;92.34
72320;SHT30;60269;52.502;16.732;2023-04-19T13:19:50;6.37;92.59
72320;SHT30;60269;52.502;16.732;2023-04-19T13:23:22;6.29;92.19
72320;SHT30;60269;52.502;16.732;2023-04-19T13:26:54;6.30;92.54
72320;SHT30;60269;52.502;16.732;2023-04-19T13:30:26;6.30;92.25
72320;SHT30;60269;52.502;16.732;2023-04-19T13:33:58;6.21;92.52
72320;SHT30;60269;52.502;16.732;2023-04-19T13:37:31;6.22;92.58
72320;SHT30;60269;52.502;16.732;2023-04-19T13:41:03;6.19;92.98
72320;SHT30;60269;52.502;16.732;2023-04-19T13:44:35;6.29;92.75
72320;SHT30;60269;52.502;16.732;2023-04-19T13:48:07;6.35;91.60
72320;SHT30;60269;52.502;16.732;2023-04-19T13:51:39;6.25;92.65
72320;SHT30;60269;52.502;16.732;2023-04-19T13:55:21;6.47;91.39
72320;SHT30;60269;52.502;16.732;2023-04-19T13:58:53;6.36;91.92
72320;SHT30;60269;52.502;16.732;2023-04-19T14:02:25;6.56;92.05
72320;SHT30;60269;52.502;16.732;2023-04-19T14:05:57;6.70;91.61
72320;SHT30;60269;52.502;16.732;2023-04-19T14:09:29;6.84;91.33
72320;SHT30;60269;52.502;16.732;2023-04-19T14:13:01;6.94;91.54
72320;SHT30;60269;52.502;16.732;2023-04-19T14:16:34;6.95;90.61
72320;SHT30;60269;52.502;16.732;2023-04-19T14:20:06;7.08;90.55
72320;SHT30;60269;52.502;16.732;2023-04-19T14:23:38;7.05;90.90
72320;SHT30;60269;52.502;16.732;2023-04-19T14:27:10;7.18;89.71
72320;SHT30;60269;52.502;16.732;2023-04-19T14:30:42;7.07;90.78
72320;SHT30;60269;52.502;16.732;2023-04-19T14:34:14;7.11;90.26
72320;SHT30;60269;52.502;16.732;2023-04-19T14:37:47;6.97;90.39
72320;SHT30;60269;52.502;16.732;2023-04-19T14:41:18;6.98;90.84
72320;SHT30;60269;52.502;16.732;2023-04-19T14:44:50;6.90;91.47
72320;SHT30;60269;52.502;16.732;2023-04-19T14:48:23;6.94;91.32
72320;SHT30;60269;52.502;16.732;2023-04-19T14:51:55;7.01;92.06
72320;SHT30;60269;52.502;16.732;2023-04-19T14:55:27;7.02;91.94
72320;SHT30;60269;52.502;16.732;2023-04-19T14:58:59;7.07;92.18
72320;SHT30;60269;52.502;16.732;2023-04-19T15:02:31;7.07;92.20
72320;SHT30;60269;52.502;16.732;2023-04-19T15:06:03;7.09;92.12
72320;SHT30;60269;52.502;16.732;2023-04-19T15:09:36;7.07;92.10
72320;SHT30;60269;52.502;16.732;2023-04-19T15:13:08;7.12;92.61
72320;SHT30;60269;52.502;16.732;2023-04-19T15:16:40;7.18;92.15
72320;SHT30;60269;52.502;16.732;2023-04-19T15:20:12;7.21;91.69
72320;SHT30;60269;52.502;16.732;2023-04-19T15:23:45;7.12;92.45
72320;SHT30;60269;52.502;16.732;2023-04-19T15:27:17;7.04;92.52
72320;SHT30;60269;52.502;16.732;2023-04-19T15:31:01;6.90;92.48
72320;SHT30;60269;52.502;16.732;2023-04-19T15:34:33;6.74;93.15
72320;SHT30;60269;52.502;16.732;2023-04-19T15:38:06;6.81;92.77
72320;SHT30;60269;52.502;16.732;2023-04-19T15:41:38;6.81;93.02
72320;SHT30;60269;52.502;16.732;2023-04-19T15:45:10;6.76;93.40
72320;SHT30;60269;52.502;16.732;2023-04-19T15:48:43;6.91;93.28
72320;SHT30;60269;52.502;16.732;2023-04-19T15:52:15;6.90;93.34
72320;SHT30;60269;52.502;16.732;2023-04-19T15:55:47;6.90;93.39
72320;SHT30;60269;52.502;16.732;2023-04-19T15:59:19;6.88;93.29
72320;SHT30;60269;52.502;16.732;2023-04-19T16:02:55;6.88;93.76
72320;SHT30;60269;52.502;16.732;2023-04-19T16:06:27;6.98;93.40
72320;SHT30;60269;52.502;16.732;2023-04-19T16:09:59;6.90;93.72
72320;SHT30;60269;52.502;16.732;2023-04-19T16:13:31;6.84;94.58
72320;SHT30;60269;52.502;16.732;2023-04-19T16:17:03;6.79;95.08
72320;SHT30;60269;52.502;16.732;2023-04-19T16:20:36;6.79;95.26
72320;SHT30;60269;52.502;16.732;2023-04-19T16:24:08;6.76;95.57
72320;SHT30;60269;52.502;16.732;2023-04-19T16:27:42;6.73;95.83
72320;SHT30;60269;52.502;16.732;2023-04-19T16:31:14;6.64;95.82
72320;SHT30;60269;52.502;16.732;2023-04-19T16:34:46;6.60;96.19
72320;SHT30;60269;52.502;16.732;2023-04-19T16:38:18;6.58;96.46
72320;SHT30;60269;52.502;16.732;2023-04-19T16:41:50;6.50;96.78
72320;SHT30;60269;52.502;16.732;2023-04-19T16:45:22;6.43;97.03
72320;SHT30;60269;52.502;16.732;2023-04-19T16:48:54;6.50;96.80
72320;SHT30;60269;52.502;16.732;2023-04-19T16:52:29;6.43;97.15
72320;SHT30;60269;52.502;16.732;2023-04-19T16:56:01;6.56;97.15
72320;SHT30;60269;52.502;16.732;2023-04-19T16:59:35;6.62;96.82
72320;SHT30;60269;52.502;16.732;2023-04-19T17:03:06;6.57;96.92
72320;SHT30;60269;52.502;16.732;2023-04-19T17:06:43;6.58;96.84
72320;SHT30;60269;52.502;16.732;2023-04-19T17:10:14;6.50;97.17
72320;SHT30;60269;52.502;16.732;2023-04-19T17:13:47;6.40;97.30
72320;SHT30;60269;52.502;16.732;2023-04-19T17:17:18;6.46;97.35
72320;SHT30;60269;52.502;16.732;2023-04-19T17:20:51;6.46;97.27
72320;SHT30;60269;52.502;16.732;2023-04-19T17:24:24;6.46;97.30
72320;SHT30;60269;52.502;16.732;2023-04-19T17:27:56;6.43;97.37
72320;SHT30;60269;52.502;16.732;2023-04-19T17:31:28;6.46;97.34
72320;SHT30;60269;52.502;16.732;2023-04-19T17:35:00;6.50;97.40
72320;SHT30;60269;52.502;16.732;2023-04-19T17:38:32;6.39;97.52
72320;SHT30;60269;52.502;16.732;2023-04-19T17:42:04;6.43;97.64
72320;SHT30;60269;52.502;16.732;2023-04-19T17:45:36;6.44;97.51
72320;SHT30;60269;52.502;16.732;2023-04-19T17:49:08;6.50;97.42
72320;SHT30;60269;52.502;16.732;2023-04-19T17:52:40;6.44;97.34
72320;SHT30;60269;52.502;16.732;2023-04-19T17:56:12;6.35;97.63
72320;SHT30;60269;52.502;16.732;2023-04-19T17:59:45;6.36;97.40
72320;SHT30;60269;52.502;16.732;2023-04-19T18:03:16;6.22;97.42
72320;SHT30;60269;52.502;16.732;2023-04-19T18:06:49;6.18;97.65
72320;SHT30;60269;52.502;16.732;2023-04-19T18:10:21;6.14;97.74
72320;SHT30;60269;52.502;16.732;2023-04-19T18:13:53;6.04;98.08
72320;SHT30;60269;52.502;16.732;2023-04-19T18:17:25;6.08;97.92
72320;SHT30;60269;52.502;16.732;2023-04-19T18:20:57;6.08;97.96
72320;SHT30;60269;52.502;16.732;2023-04-19T18:24:31;6.04;97.92
72320;SHT30;60269;52.502;16.732;2023-04-19T18:28:03;6.12;97.71
72320;SHT30;60269;52.502;16.732;2023-04-19T18:31:35;6.05;97.76
72320;SHT30;60269;52.502;16.732;2023-04-19T18:35:07;6.06;97.72
72320;SHT30;60269;52.502;16.732;2023-04-19T18:38:40;6.01;98.05
72320;SHT30;60269;52.502;16.732;2023-04-19T18:42:13;6.01;98.03
72320;SHT30;60269;52.502;16.732;2023-04-19T18:45:52;6.01;98.14
72320;SHT30;60269;52.502;16.732;2023-04-19T18:49:24;6.02;98.06
72320;SHT30;60269;52.502;16.732;2023-04-19T18:52:55;6.05;98.02
72320;SHT30;60269;52.502;16.732;2023-04-19T18:56:28;6.09;97.83
72320;SHT30;60269;52.502;16.732;2023-04-19T19:00:03;6.09;97.66
72320;SHT30;60269;52.502;16.732;2023-04-19T19:03:41;6.05;97.81
72320;SHT30;60269;52.502;16.732;2023-04-19T19:07:16;6.11;97.99
72320;SHT30;60269;52.502;16.732;2023-04-19T19:11:17;6.04;97.82
72320;SHT30;60269;52.502;16.732;2023-04-19T19:14:59;6.04;97.87
72320;SHT30;60269;52.502;16.732;2023-04-19T19:18:31;6.05;97.90
72320;SHT30;60269;52.502;16.732;2023-04-19T19:22:03;6.09;97.93
72320;SHT30;60269;52.502;16.732;2023-04-19T19:25:53;6.04;98.08
72320;SHT30;60269;52.502;16.732;2023-04-19T19:29:25;5.93;98.35
72320;SHT30;60269;52.502;16.732;2023-04-19T19:32:58;6.06;98.33
72320;SHT30;60269;52.502;16.732;2023-04-19T19:36:33;5.98;98.55
72320;SHT30;60269;52.502;16.732;2023-04-19T19:40:06;6.01;98.60
72320;SHT30;60269;52.502;16.732;2023-04-19T19:43:41;6.09;98.56
72320;SHT30;60269;52.502;16.732;2023-04-19T19:47:14;6.11;98.43
72320;SHT30;60269;52.502;16.732;2023-04-19T19:50:47;6.11;98.54
72320;SHT30;60269;52.502;16.732;2023-04-19T19:54:40;6.12;98.40
72320;SHT30;60269;52.502;16.732;2023-04-19T19:58:12;6.12;98.61
72320;SHT30;60269;52.502;16.732;2023-04-19T20:02:04;6.11;98.52
72320;SHT30;60269;52.502;16.732;2023-04-19T20:05:37;6.14;98.47
72320;SHT30;60269;52.502;16.732;2023-04-19T20:09:10;6.18;98.45
72320;SHT30;60269;52.502;16.732;2023-04-19T20:12:42;6.15;98.66
72320;SHT30;60269;52.502;16.732;2023-04-19T20:16:15;6.12;98.73
72320;SHT30;60269;52.502;16.732;2023-04-19T20:19:49;6.14;98.74
72320;SHT30;60269;52.502;16.732;2023-04-19T20:23:22;6.21;98.74
72320;SHT30;60269;52.502;16.732;2023-04-19T20:26:54;6.09;99.00
72320;SHT30;60269;52.502;16.732;2023-04-19T20:30:28;6.11;99.02
72320;SHT30;60269;52.502;16.732;2023-04-19T20:34:00;6.25;98.75
72320;SHT30;60269;52.502;16.732;2023-04-19T20:37:32;6.22;98.66
72320;SHT30;60269;52.502;16.732;2023-04-19T20:41:04;6.30;98.46
72320;SHT30;60269;52.502;16.732;2023-04-19T20:44:36;6.39;98.06
72320;SHT30;60269;52.502;16.732;2023-04-19T20:48:08;6.33;98.18
72320;SHT30;60269;52.502;16.732;2023-04-19T20:51:41;6.50;97.79
72320;SHT30;60269;52.502;16.732;2023-04-19T20:55:13;6.42;97.99
72320;SHT30;60269;52.502;16.732;2023-04-19T20:58:45;6.43;98.10
72320;SHT30;60269;52.502;16.732;2023-04-19T21:02:17;6.35;98.58
72320;SHT30;60269;52.502;16.732;2023-04-19T21:05:50;6.46;98.47
72320;SHT30;60269;52.502;16.732;2023-04-19T21:09:22;6.35;98.63
72320;SHT30;60269;52.502;16.732;2023-04-19T21:12:54;6.44;98.59
72320;SHT30;60269;52.502;16.732;2023-04-19T21:16:26;6.40;98.54
72320;SHT30;60269;52.502;16.732;2023-04-19T21:20:00;6.44;98.67
72320;SHT30;60269;52.502;16.732;2023-04-19T21:23:32;6.53;98.42
72320;SHT30;60269;52.502;16.732;2023-04-19T21:27:05;6.54;98.40
72320;SHT30;60269;52.502;16.732;2023-04-19T21:30:36;6.53;98.29
72320;SHT30;60269;52.502;16.732;2023-04-19T21:34:12;6.52;98.33
72320;SHT30;60269;52.502;16.732;2023-04-19T21:37:44;6.54;98.16
72320;SHT30;60269;52.502;16.732;2023-04-19T21:41:16;6.57;97.91
72320;SHT30;60269;52.502;16.732;2023-04-19T21:44:49;6.52;98.12
72320;SHT30;60269;52.502;16.732;2023-04-19T21:48:21;6.42;98.49
72320;SHT30;60269;52.502;16.732;2023-04-19T21:51:53;6.46;98.42
72320;SHT30;60269;52.502;16.732;2023-04-19T21:55:25;6.35;98.80
72320;SHT30;60269;52.502;16.732;2023-04-19T21:58:57;6.50;98.56
72320;SHT30;60269;52.502;16.732;2023-04-19T22:02:29;6.44;98.61
72320;SHT30;60269;52.502;16.732;2023-04-19T22:06:01;6.43;98.84
72320;SHT30;60269;52.502;16.732;2023-04-19T22:09:34;6.40;98.78
72320;SHT30;60269;52.502;16.732;2023-04-19T22:13:06;6.42;98.90
72320;SHT30;60269;52.502;16.732;2023-04-19T22:16:39;6.49;98.78
72320;SHT30;60269;52.502;16.732;2023-04-19T22:20:13;6.53;98.70
72320;SHT30;60269;52.502;16.732;2023-04-19T22:23:45;6.53;98.54
72320;SHT30;60269;52.502;16.732;2023-04-19T22:27:18;6.53;98.38
72320;SHT30;60269;52.502;16.732;2023-04-19T22:30:50;6.57;98.44
72320;SHT30;60269;52.502;16.732;2023-04-19T22:34:22;6.53;98.24
72320;SHT30;60269;52.502;16.732;2023-04-19T22:37:54;6.47;98.39
72320;SHT30;60269;52.502;16.732;2023-04-19T22:41:26;6.52;98.35
72320;SHT30;60269;52.502;16.732;2023-04-19T22:44:58;6.50;98.27
72320;SHT30;60269;52.502;16.732;2023-04-19T22:48:30;6.44;98.62
72320;SHT30;60269;52.502;16.732;2023-04-19T22:52:02;6.49;98.45
72320;SHT30;60269;52.502;16.732;2023-04-19T22:55:35;6.49;98.47
72320;SHT30;60269;52.502;16.732;2023-04-19T22:59:07;6.54;98.39
72320;SHT30;60269;52.502;16.732;2023-04-19T23:02:39;6.44;98.46
72320;SHT30;60269;52.502;16.732;2023-04-19T23:06:11;6.44;98.68
72320;SHT30;60269;52.502;16.732;2023-04-19T23:09:43;6.43;98.63
72320;SHT30;60269;52.502;16.732;2023-04-19T23:13:15;6.39;98.67
72320;SHT30;60269;52.502;16.732;2023-04-19T23:16:47;6.46;98.78
72320;SHT30;60269;52.502;16.732;2023-04-19T23:20:20;6.44;98.68
72320;SHT30;60269;52.502;16.732;2023-04-19T23:23:52;6.58;98.23
72320;SHT30;60269;52.502;16.732;2023-04-19T23:27:24;6.52;98.39
72320;SHT30;60269;52.502;16.732;2023-04-19T23:30:56;6.49;98.37
72320;SHT30;60269;52.502;16.732;2023-04-19T23:34:28;6.44;98.59
72320;SHT30;60269;52.502;16.732;2023-04-19T23:38:01;6.50;98.58
72320;SHT30;60269;52.502;16.732;2023-04-19T23:41:32;6.54;98.20
72320;SHT30;60269;52.502;16.732;2023-04-19T23:45:05;6.46;98.26
72320;SHT30;60269;52.502;16.732;2023-04-19T23:48:37;6.52;98.37
72320;SHT30;60269;52.502;16.732;2023-04-19T23:52:09;6.39;98.70
72320;SHT30;60269;52.502;16.732;2023-04-19T23:55:42;6.49;98.82
72320;SHT30;60269;52.502;16.732;2023-04-19T23:59:14;6.47;98.81
